sensor_id;sensor_type;location;lat;lon;timestamp;P1;durP1;ratioP1;P2;durP2;ratioP2
3698;SDS011;1865;50.918;7.092;2023-04-01T00:02:00;5.03;;;0.50;;
3698;SDS011;1865;50.918;7.092;2023-04-01T00:04:26;6.60;;;0.50;;
3698;SDS011;1865;50.918;7.092;2023-04-01T00:06:52;5.60;;;0.60;;
3698;SDS011;1865;50.918;7.092;2023-04-01T00:09:17;7.43;;;0.70;;
3698;SDS011;1865;50.918;7.092;2023-04-01T00:11:43;5.43;;;0.57;;
3698;SDS011;1865;50.918;7.092;2023-04-01T00:14:10;5.07;;;0.50;;
3698;SDS011;1865;50.918;7.092;2023-04-01T00:16:36;6.00;;;0.70;;
3698;SDS011;1865;50.918;7.092;2023-04-01T00:19:02;5.07;;;0.47;;
3698;SDS011;1865;50.918;7.092;2023-04-01T00:21:28;8.37;;;0.57;;
3698;SDS011;1865;50.918;7.092;2023-04-01T00:23:53;6.93;;;0.60;;
3698;SDS011;1865;50.918;7.092;2023-04-01T00:26:19;5.53;;;0.40;;
3698;SDS011;1865;50.918;7.092;2023-04-01T00:28:46;7.30;;;0.80;;
3698;SDS011;1865;50.918;7.092;2023-04-01T00:31:12;5.53;;;0.70;;
3698;SDS011;1865;50.918;7.092;2023-04-01T00:33:39;5.33;;;0.60;;
3698;SDS011;1865;50.918;7.092;2023-04-01T00:36:07;6.50;;;1.03;;
3698;SDS011;1865;50.918;7.092;2023-04-01T00:38:34;4.60;;;0.40;;
3698;SDS011;1865;50.918;7.092;2023-04-01T00:40:59;6.90;;;0.50;;
3698;SDS011;1865;50.918;7.092;2023-04-01T00:43:25;4.80;;;0.50;;
3698;SDS011;1865;50.918;7.092;2023-04-01T00:45:51;4.43;;;0.37;;
3698;SDS011;1865;50.918;7.092;2023-04-01T00:48:21;4.70;;;0.50;;
3698;SDS011;1865;50.918;7.092;2023-04-01T00:50:52;5.37;;;0.50;;
3698;SDS011;1865;50.918;7.092;2023-04-01T00:53:24;4.70;;;0.40;;
3698;SDS011;1865;50.918;7.092;2023-04-01T00:56:38;4.70;;;0.50;;
3698;SDS011;1865;50.918;7.092;2023-04-01T00:58:41;4.40;;;0.40;;
3698;SDS011;1865;50.918;7.092;2023-04-01T01:01:11;4.70;;;0.40;;
3698;SDS011;1865;50.918;7.092;2023-04-01T01:03:36;6.40;;;0.40;;
3698;SDS011;1865;50.918;7.092;2023-04-01T01:08:39;4.87;;;0.60;;
3698;SDS011;1865;50.918;7.092;2023-04-01T01:11:15;5.23;;;0.50;;
3698;SDS011;1865;50.918;7.092;2023-04-01T01:16:39;5.80;;;0.40;;
3698;SDS011;1865;50.918;7.092;2023-04-01T01:19:33;4.30;;;0.40;;
3698;SDS011;1865;50.918;7.092;2023-04-01T01:25:25;5.60;;;0.40;;
3698;SDS011;1865;50.918;7.092;2023-04-01T01:31:00;4.97;;;0.50;;
3698;SDS011;1865;50.918;7.092;2023-04-01T01:33:36;5.33;;;0.57;;
3698;SDS011;1865;50.918;7.092;2023-04-01T01:36:23;5.53;;;0.40;;
3698;SDS011;1865;50.918;7.092;2023-04-01T01:38:53;4.43;;;0.47;;
3698;SDS011;1865;50.918;7.092;2023-04-01T01:41:20;4.60;;;0.47;;
3698;SDS011;1865;50.918;7.092;2023-04-01T01:43:51;4.10;;;0.40;;
3698;SDS011;1865;50.918;7.092;2023-04-01T01:46:21;4.40;;;0.50;;
3698;SDS011;1865;50.918;7.092;2023-04-01T01:48:48;4.50;;;0.40;;
3698;SDS011;1865;50.918;7.092;2023-04-01T01:51:16;6.33;;;0.40;;
3698;SDS011;1865;50.918;7.092;2023-04-01T01:53:43;4.83;;;0.50;;
3698;SDS011;1865;50.918;7.092;2023-04-01T01:56:09;5.13;;;0.50;;
3698;SDS011;1865;50.918;7.092;2023-04-01T01:58:44;4.20;;;0.40;;
3698;SDS011;1865;50.918;7.092;2023-04-01T02:01:14;4.43;;;0.40;;
3698;SDS011;1865;50.918;7.092;2023-04-01T02:03:44;4.63;;;0.60;;
3698;SDS011;1865;50.918;7.092;2023-04-01T02:06:11;5.03;;;0.63;;
3698;SDS011;1865;50.918;7.092;2023-04-01T02:08:52;4.30;;;0.50;;
3698;SDS011;1865;50.918;7.092;2023-04-01T02:11:32;3.93;;;0.40;;
3698;SDS011;1865;50.918;7.092;2023-04-01T02:16:44;3.73;;;0.40;;
3698;SDS011;1865;50.918;7.092;2023-04-01T02:19:14;3.93;;;0.50;;
3698;SDS011;1865;50.918;7.092;2023-04-01T02:21:47;3.67;;;0.40;;
3698;SDS011;1865;50.918;7.092;2023-04-01T02:24:17;4.13;;;0.30;;
3698;SDS011;1865;50.918;7.092;2023-04-01T02:26:47;2.90;;;0.40;;
3698;SDS011;1865;50.918;7.092;2023-04-01T02:29:15;2.70;;;0.30;;
3698;SDS011;1865;50.918;7.092;2023-04-01T02:31:44;4.00;;;0.40;;
3698;SDS011;1865;50.918;7.092;2023-04-01T02:34:10;4.73;;;0.50;;
3698;SDS011;1865;50.918;7.092;2023-04-01T02:36:36;3.60;;;0.47;;
3698;SDS011;1865;50.918;7.092;2023-04-01T02:39:03;4.20;;;0.60;;
3698;SDS011;1865;50.918;7.092;2023-04-01T02:41:29;3.73;;;0.50;;
3698;SDS011;1865;50.918;7.092;2023-04-01T02:43:55;3.50;;;0.40;;
3698;SDS011;1865;50.918;7.092;2023-04-01T02:46:23;2.40;;;0.30;;
3698;SDS011;1865;50.918;7.092;2023-04-01T02:48:49;2.90;;;0.40;;
3698;SDS011;1865;50.918;7.092;2023-04-01T02:51:14;3.27;;;0.40;;
3698;SDS011;1865;50.918;7.092;2023-04-01T02:53:40;2.73;;;0.30;;
3698;SDS011;1865;50.918;7.092;2023-04-01T02:56:06;2.63;;;0.40;;
3698;SDS011;1865;50.918;7.092;2023-04-01T02:58:31;2.50;;;0.30;;
3698;SDS011;1865;50.918;7.092;2023-04-01T03:00:57;5.47;;;0.40;;
3698;SDS011;1865;50.918;7.092;2023-04-01T03:03:22;3.63;;;0.50;;
3698;SDS011;1865;50.918;7.092;2023-04-01T03:05:48;3.03;;;0.40;;
3698;SDS011;1865;50.918;7.092;2023-04-01T03:08:13;2.70;;;0.50;;
3698;SDS011;1865;50.918;7.092;2023-04-01T03:10:39;2.87;;;0.30;;
3698;SDS011;1865;50.918;7.092;2023-04-01T03:13:04;3.07;;;0.50;;
3698;SDS011;1865;50.918;7.092;2023-04-01T03:15:31;2.60;;;0.40;;
3698;SDS011;1865;50.918;7.092;2023-04-01T03:17:56;2.30;;;0.30;;
3698;SDS011;1865;50.918;7.092;2023-04-01T03:20:22;4.37;;;0.40;;
3698;SDS011;1865;50.918;7.092;2023-04-01T03:22:47;2.60;;;0.30;;
3698;SDS011;1865;50.918;7.092;2023-04-01T03:25:13;3.93;;;0.50;;
3698;SDS011;1865;50.918;7.092;2023-04-01T03:27:39;2.60;;;0.40;;
3698;SDS011;1865;50.918;7.092;2023-04-01T03:30:04;3.50;;;0.40;;
3698;SDS011;1865;50.918;7.092;2023-04-01T03:32:31;2.50;;;0.33;;
3698;SDS011;1865;50.918;7.092;2023-04-01T03:34:57;2.83;;;0.40;;
3698;SDS011;1865;50.918;7.092;2023-04-01T03:37:23;2.50;;;0.40;;
3698;SDS011;1865;50.918;7.092;2023-04-01T03:39:48;3.13;;;0.40;;
3698;SDS011;1865;50.918;7.092;2023-04-01T03:42:14;3.63;;;0.67;;
3698;SDS011;1865;50.918;7.092;2023-04-01T03:44:40;2.67;;;0.40;;
3698;SDS011;1865;50.918;7.092;2023-04-01T03:47:05;2.53;;;0.40;;
3698;SDS011;1865;50.918;7.092;2023-04-01T03:49:31;4.90;;;0.70;;
3698;SDS011;1865;50.918;7.092;2023-04-01T03:51:57;3.30;;;0.57;;
3698;SDS011;1865;50.918;7.092;2023-04-01T03:54:23;2.30;;;0.30;;
3698;SDS011;1865;50.918;7.092;2023-04-01T03:56:49;3.17;;;0.50;;
3698;SDS011;1865;50.918;7.092;2023-04-01T03:59:14;2.70;;;0.40;;
3698;SDS011;1865;50.918;7.092;2023-04-01T04:01:40;2.70;;;0.40;;
3698;SDS011;1865;50.918;7.092;2023-04-01T04:04:06;2.30;;;0.30;;
3698;SDS011;1865;50.918;7.092;2023-04-01T04:06:32;3.53;;;0.47;;
3698;SDS011;1865;50.918;7.092;2023-04-01T04:08:58;3.10;;;0.40;;
3698;SDS011;1865;50.918;7.092;2023-04-01T04:11:24;2.30;;;0.30;;
3698;SDS011;1865;50.918;7.092;2023-04-01T04:13:50;5.23;;;0.60;;
3698;SDS011;1865;50.918;7.092;2023-04-01T04:16:17;2.30;;;0.40;;
3698;SDS011;1865;50.918;7.092;2023-04-01T04:18:43;3.07;;;0.30;;
3698;SDS011;1865;50.918;7.092;2023-04-01T04:21:11;2.20;;;0.30;;
3698;SDS011;1865;50.918;7.092;2023-04-01T04:23:39;2.70;;;0.40;;
3698;SDS011;1865;50.918;7.092;2023-04-01T04:26:05;2.60;;;0.43;;
3698;SDS011;1865;50.918;7.092;2023-04-01T04:28:32;2.43;;;0.37;;
3698;SDS011;1865;50.918;7.092;2023-04-01T04:30:58;2.90;;;0.40;;
3698;SDS011;1865;50.918;7.092;2023-04-01T04:33:24;4.07;;;0.60;;
3698;SDS011;1865;50.918;7.092;2023-04-01T04:35:50;6.50;;;0.50;;
3698;SDS011;1865;50.918;7.092;2023-04-01T04:38:19;2.53;;;0.40;;
3698;SDS011;1865;50.918;7.092;2023-04-01T04:40:44;3.07;;;0.40;;
3698;SDS011;1865;50.918;7.092;2023-04-01T04:43:10;2.43;;;0.40;;
3698;SDS011;1865;50.918;7.092;2023-04-01T04:45:37;2.30;;;0.40;;
3698;SDS011;1865;50.918;7.092;2023-04-01T04:48:03;2.93;;;0.50;;
3698;SDS011;1865;50.918;7.092;2023-04-01T04:50:28;4.10;;;0.40;;
3698;SDS011;1865;50.918;7.092;2023-04-01T04:52:54;2.70;;;0.40;;
3698;SDS011;1865;50.918;7.092;2023-04-01T04:55:20;3.17;;;0.40;;
3698;SDS011;1865;50.918;7.092;2023-04-01T04:57:45;3.07;;;0.40;;
3698;SDS011;1865;50.918;7.092;2023-04-01T05:00:11;2.23;;;0.30;;
3698;SDS011;1865;50.918;7.092;2023-04-01T05:02:37;2.23;;;0.30;;
3698;SDS011;1865;50.918;7.092;2023-04-01T05:05:02;2.90;;;0.40;;
3698;SDS011;1865;50.918;7.092;2023-04-01T05:07:29;2.50;;;0.30;;
3698;SDS011;1865;50.918;7.092;2023-04-01T05:09:54;2.40;;;0.40;;
3698;SDS011;1865;50.918;7.092;2023-04-01T05:12:20;2.53;;;0.40;;
3698;SDS011;1865;50.918;7.092;2023-04-01T05:14:45;3.40;;;0.30;;
3698;SDS011;1865;50.918;7.092;2023-04-01T05:17:11;2.30;;;0.40;;
3698;SDS011;1865;50.918;7.092;2023-04-01T05:19:37;2.73;;;0.40;;
3698;SDS011;1865;50.918;7.092;2023-04-01T05:22:04;2.70;;;0.40;;
3698;SDS011;1865;50.918;7.092;2023-04-01T05:24:30;4.00;;;0.40;;
3698;SDS011;1865;50.918;7.092;2023-04-01T05:26:56;3.67;;;0.40;;
3698;SDS011;1865;50.918;7.092;2023-04-01T05:29:22;2.70;;;0.40;;
3698;SDS011;1865;50.918;7.092;2023-04-01T05:31:48;2.30;;;0.30;;
3698;SDS011;1865;50.918;7.092;2023-04-01T05:34:14;2.20;;;0.30;;
3698;SDS011;1865;50.918;7.092;2023-04-01T05:36:40;2.43;;;0.40;;
3698;SDS011;1865;50.918;7.092;2023-04-01T05:39:06;6.60;;;0.63;;
3698;SDS011;1865;50.918;7.092;2023-04-01T05:41:34;2.70;;;0.50;;
3698;SDS011;1865;50.918;7.092;2023-04-01T05:44:00;3.13;;;0.40;;
3698;SDS011;1865;50.918;7.092;2023-04-01T05:46:26;2.40;;;0.30;;
3698;SDS011;1865;50.918;7.092;2023-04-01T05:48:52;2.60;;;0.40;;
3698;SDS011;1865;50.918;7.092;2023-04-01T05:51:18;3.23;;;0.40;;
3698;SDS011;1865;50.918;7.092;2023-04-01T05:53:43;2.23;;;0.40;;
3698;SDS011;1865;50.918;7.092;2023-04-01T05:56:09;3.07;;;0.50;;
3698;SDS011;1865;50.918;7.092;2023-04-01T05:58:35;3.10;;;0.50;;
3698;SDS011;1865;50.918;7.092;2023-04-01T06:01:08;2.27;;;0.33;;
3698;SDS011;1865;50.918;7.092;2023-04-01T06:03:35;2.80;;;0.50;;
3698;SDS011;1865;50.918;7.092;2023-04-01T06:06:01;2.93;;;0.40;;
3698;SDS011;1865;50.918;7.092;2023-04-01T06:08:28;4.63;;;0.73;;
3698;SDS011;1865;50.918;7.092;2023-04-01T06:16:52;2.40;;;0.40;;
3698;SDS011;1865;50.918;7.092;2023-04-01T06:28:18;3.90;;;0.50;;
3698;SDS011;1865;50.918;7.092;2023-04-01T06:31:10;2.50;;;0.40;;
3698;SDS011;1865;50.918;7.092;2023-04-01T06:36:31;2.80;;;0.50;;
3698;SDS011;1865;50.918;7.092;2023-04-01T06:45:31;3.60;;;0.50;;
3698;SDS011;1865;50.918;7.092;2023-04-01T06:48:34;2.67;;;0.60;;
3698;SDS011;1865;50.918;7.092;2023-04-01T06:54:01;2.67;;;0.57;;
3698;SDS011;1865;50.918;7.092;2023-04-01T06:56:41;3.23;;;0.60;;
3698;SDS011;1865;50.918;7.092;2023-04-01T06:59:17;3.47;;;0.70;;
3698;SDS011;1865;50.918;7.092;2023-04-01T07:01:47;2.73;;;0.60;;
3698;SDS011;1865;50.918;7.092;2023-04-01T07:04:20;4.20;;;0.60;;
3698;SDS011;1865;50.918;7.092;2023-04-01T07:06:55;2.90;;;0.57;;
3698;SDS011;1865;50.918;7.092;2023-04-01T07:09:33;4.03;;;0.90;;
3698;SDS011;1865;50.918;7.092;2023-04-01T07:12:06;3.93;;;0.87;;
3698;SDS011;1865;50.918;7.092;2023-04-01T07:14:46;4.20;;;0.67;;
3698;SDS011;1865;50.918;7.092;2023-04-01T07:17:20;3.70;;;0.73;;
3698;SDS011;1865;50.918;7.092;2023-04-01T07:19:59;2.80;;;0.50;;
3698;SDS011;1865;50.918;7.092;2023-04-01T07:22:34;3.13;;;0.80;;
3698;SDS011;1865;50.918;7.092;2023-04-01T07:25:17;3.60;;;0.70;;
3698;SDS011;1865;50.918;7.092;2023-04-01T07:27:45;3.53;;;1.17;;
3698;SDS011;1865;50.918;7.092;2023-04-01T07:30:13;4.30;;;0.83;;
3698;SDS011;1865;50.918;7.092;2023-04-01T07:32:44;3.20;;;0.93;;
3698;SDS011;1865;50.918;7.092;2023-04-01T07:40:55;5.37;;;1.27;;
3698;SDS011;1865;50.918;7.092;2023-04-01T07:49:28;6.00;;;0.83;;
3698;SDS011;1865;50.918;7.092;2023-04-01T07:52:04;6.30;;;1.30;;
3698;SDS011;1865;50.918;7.092;2023-04-01T07:57:32;3.00;;;0.60;;
3698;SDS011;1865;50.918;7.092;2023-04-01T08:02:47;4.23;;;1.10;;
3698;SDS011;1865;50.918;7.092;2023-04-01T08:05:45;5.00;;;1.17;;
3698;SDS011;1865;50.918;7.092;2023-04-01T08:13:53;3.83;;;1.03;;
3698;SDS011;1865;50.918;7.092;2023-04-01T08:19:28;4.20;;;0.90;;
3698;SDS011;1865;50.918;7.092;2023-04-01T08:22:10;4.20;;;1.10;;
3698;SDS011;1865;50.918;7.092;2023-04-01T08:24:59;5.10;;;0.90;;
3698;SDS011;1865;50.918;7.092;2023-04-01T08:27:35;3.10;;;0.97;;
3698;SDS011;1865;50.918;7.092;2023-04-01T08:30:24;4.30;;;1.07;;
3698;SDS011;1865;50.918;7.092;2023-04-01T08:32:59;3.33;;;0.80;;
3698;SDS011;1865;50.918;7.092;2023-04-01T08:35:50;2.70;;;0.70;;
3698;SDS011;1865;50.918;7.092;2023-04-01T08:38:30;3.43;;;1.00;;
3698;SDS011;1865;50.918;7.092;2023-04-01T08:41:00;3.50;;;1.10;;
3698;SDS011;1865;50.918;7.092;2023-04-01T08:43:50;3.00;;;0.80;;
3698;SDS011;1865;50.918;7.092;2023-04-01T09:08:38;3.00;;;0.90;;
3698;SDS011;1865;50.918;7.092;2023-04-01T09:11:17;2.87;;;0.67;;
3698;SDS011;1865;50.918;7.092;2023-04-01T09:17:19;2.90;;;0.80;;
3698;SDS011;1865;50.918;7.092;2023-04-01T09:25:26;2.70;;;0.70;;
3698;SDS011;1865;50.918;7.092;2023-04-01T09:28:19;3.10;;;0.97;;
3698;SDS011;1865;50.918;7.092;2023-04-01T09:30:56;4.50;;;0.60;;
3698;SDS011;1865;50.918;7.092;2023-04-01T09:39:13;3.00;;;0.70;;
3698;SDS011;1865;50.918;7.092;2023-04-01T09:44:48;2.90;;;0.80;;
3698;SDS011;1865;50.918;7.092;2023-04-01T09:53:28;2.80;;;0.70;;
3698;SDS011;1865;50.918;7.092;2023-04-01T09:58:51;3.40;;;0.77;;
3698;SDS011;1865;50.918;7.092;2023-04-01T10:04:43;2.90;;;0.63;;
3698;SDS011;1865;50.918;7.092;2023-04-01T10:10:27;2.87;;;0.70;;
3698;SDS011;1865;50.918;7.092;2023-04-01T10:21:47;3.90;;;1.10;;
3698;SDS011;1865;50.918;7.092;2023-04-01T10:36:03;5.80;;;0.80;;
3698;SDS011;1865;50.918;7.092;2023-04-01T10:38:46;2.70;;;0.60;;
3698;SDS011;1865;50.918;7.092;2023-04-01T10:41:31;3.80;;;0.80;;
3698;SDS011;1865;50.918;7.092;2023-04-01T10:47:26;2.90;;;0.80;;
3698;SDS011;1865;50.918;7.092;2023-04-01T10:56:24;3.40;;;0.80;;
3698;SDS011;1865;50.918;7.092;2023-04-01T11:07:35;2.90;;;0.80;;
3698;SDS011;1865;50.918;7.092;2023-04-01T11:13:37;3.03;;;0.83;;
3698;SDS011;1865;50.918;7.092;2023-04-01T11:19:19;2.90;;;1.00;;
3698;SDS011;1865;50.918;7.092;2023-04-01T11:25:16;4.70;;;0.70;;
3698;SDS011;1865;50.918;7.092;2023-04-01T11:30:55;3.00;;;0.63;;
3698;SDS011;1865;50.918;7.092;2023-04-01T11:36:09;3.83;;;0.80;;
3698;SDS011;1865;50.918;7.092;2023-04-01T11:38:57;2.80;;;0.63;;
3698;SDS011;1865;50.918;7.092;2023-04-01T11:44:39;3.00;;;0.70;;
3698;SDS011;1865;50.918;7.092;2023-04-01T11:47:19;2.73;;;0.70;;
3698;SDS011;1865;50.918;7.092;2023-04-01T11:49:56;3.33;;;0.50;;
3698;SDS011;1865;50.918;7.092;2023-04-01T12:07:06;2.80;;;0.70;;
3698;SDS011;1865;50.918;7.092;2023-04-01T12:12:50;2.80;;;0.63;;
3698;SDS011;1865;50.918;7.092;2023-04-01T12:18:15;3.10;;;0.80;;
3698;SDS011;1865;50.918;7.092;2023-04-01T12:20:56;3.47;;;1.00;;
3698;SDS011;1865;50.918;7.092;2023-04-01T12:37:06;3.60;;;1.17;;
3698;SDS011;1865;50.918;7.092;2023-04-01T12:42:30;3.10;;;0.70;;
3698;SDS011;1865;50.918;7.092;2023-04-01T12:55:40;2.70;;;0.50;;
3698;SDS011;1865;50.918;7.092;2023-04-01T12:58:27;5.70;;;0.60;;
3698;SDS011;1865;50.918;7.092;2023-04-01T13:01:10;3.00;;;0.60;;
3698;SDS011;1865;50.918;7.092;2023-04-01T13:04:26;2.83;;;0.57;;
3698;SDS011;1865;50.918;7.092;2023-04-01T13:18:13;3.67;;;0.87;;
3698;SDS011;1865;50.918;7.092;2023-04-01T13:21:05;3.10;;;0.50;;
3698;SDS011;1865;50.918;7.092;2023-04-01T13:32:05;3.10;;;0.80;;
3698;SDS011;1865;50.918;7.092;2023-04-01T13:34:39;3.50;;;0.77;;
3698;SDS011;1865;50.918;7.092;2023-04-01T13:37:15;3.80;;;0.80;;
3698;SDS011;1865;50.918;7.092;2023-04-01T13:42:57;3.33;;;0.77;;
3698;SDS011;1865;50.918;7.092;2023-04-01T13:45:37;3.30;;;0.87;;
3698;SDS011;1865;50.918;7.092;2023-04-01T13:48:22;3.00;;;0.83;;
3698;SDS011;1865;50.918;7.092;2023-04-01T13:51:09;3.80;;;1.00;;
3698;SDS011;1865;50.918;7.092;2023-04-01T14:02:13;3.30;;;1.20;;
3698;SDS011;1865;50.918;7.092;2023-04-01T14:10:52;3.37;;;1.17;;
3698;SDS011;1865;50.918;7.092;2023-04-01T14:18:52;3.73;;;1.10;;
3698;SDS011;1865;50.918;7.092;2023-04-01T14:38:04;4.70;;;1.30;;
3698;SDS011;1865;50.918;7.092;2023-04-01T14:43:45;3.67;;;1.40;;
3698;SDS011;1865;50.918;7.092;2023-04-01T14:46:27;3.80;;;1.27;;
3698;SDS011;1865;50.918;7.092;2023-04-01T14:51:46;3.43;;;1.30;;
3698;SDS011;1865;50.918;7.092;2023-04-01T14:54:14;3.40;;;1.17;;
3698;SDS011;1865;50.918;7.092;2023-04-01T14:56:51;4.27;;;1.47;;
3698;SDS011;1865;50.918;7.092;2023-04-01T14:59:35;3.90;;;1.13;;
3698;SDS011;1865;50.918;7.092;2023-04-01T15:05:10;5.17;;;1.20;;
3698;SDS011;1865;50.918;7.092;2023-04-01T15:10:31;6.37;;;1.57;;
3698;SDS011;1865;50.918;7.092;2023-04-01T15:13:34;4.13;;;1.37;;
3698;SDS011;1865;50.918;7.092;2023-04-01T15:27:31;5.13;;;1.47;;
3698;SDS011;1865;50.918;7.092;2023-04-01T15:30:01;3.47;;;1.33;;
3698;SDS011;1865;50.918;7.092;2023-04-01T15:38:05;4.00;;;1.23;;
3698;SDS011;1865;50.918;7.092;2023-04-01T15:48:55;3.80;;;1.33;;
3698;SDS011;1865;50.918;7.092;2023-04-01T15:51:41;4.03;;;1.40;;
3698;SDS011;1865;50.918;7.092;2023-04-01T16:00:08;4.93;;;1.70;;
3698;SDS011;1865;50.918;7.092;2023-04-01T16:05:35;13.00;;;2.33;;
3698;SDS011;1865;50.918;7.092;2023-04-01T16:08:23;4.10;;;1.70;;
3698;SDS011;1865;50.918;7.092;2023-04-01T16:11:21;4.03;;;1.50;;
3698;SDS011;1865;50.918;7.092;2023-04-01T16:17:32;3.80;;;1.73;;
3698;SDS011;1865;50.918;7.092;2023-04-01T16:20:18;4.30;;;1.87;;
3698;SDS011;1865;50.918;7.092;2023-04-01T16:25:58;4.20;;;1.80;;
3698;SDS011;1865;50.918;7.092;2023-04-01T16:28:34;4.07;;;1.43;;
3698;SDS011;1865;50.918;7.092;2023-04-01T16:36:34;4.77;;;2.33;;
3698;SDS011;1865;50.918;7.092;2023-04-01T16:44:31;4.77;;;1.70;;
3698;SDS011;1865;50.918;7.092;2023-04-01T16:47:30;5.63;;;2.00;;
3698;SDS011;1865;50.918;7.092;2023-04-01T16:50:17;4.30;;;1.80;;
3698;SDS011;1865;50.918;7.092;2023-04-01T16:55:24;4.30;;;1.60;;
3698;SDS011;1865;50.918;7.092;2023-04-01T16:58:14;5.07;;;2.27;;
3698;SDS011;1865;50.918;7.092;2023-04-01T17:00:50;4.00;;;1.60;;
3698;SDS011;1865;50.918;7.092;2023-04-01T17:03:32;5.10;;;1.70;;
3698;SDS011;1865;50.918;7.092;2023-04-01T17:16:59;4.77;;;2.20;;
3698;SDS011;1865;50.918;7.092;2023-04-01T17:19:49;4.80;;;2.37;;
3698;SDS011;1865;50.918;7.092;2023-04-01T17:30:52;4.60;;;2.17;;
3698;SDS011;1865;50.918;7.092;2023-04-01T17:39:20;4.27;;;1.97;;
3698;SDS011;1865;50.918;7.092;2023-04-01T17:42:11;4.40;;;1.90;;
3698;SDS011;1865;50.918;7.092;2023-04-01T17:44:58;5.37;;;2.23;;
3698;SDS011;1865;50.918;7.092;2023-04-01T17:47:39;4.30;;;2.00;;
3698;SDS011;1865;50.918;7.092;2023-04-01T17:52:52;4.80;;;2.30;;
3698;SDS011;1865;50.918;7.092;2023-04-01T17:58:13;7.63;;;2.40;;
3698;SDS011;1865;50.918;7.092;2023-04-01T18:09:50;4.70;;;2.20;;
3698;SDS011;1865;50.918;7.092;2023-04-01T18:14:58;5.67;;;2.33;;
3698;SDS011;1865;50.918;7.092;2023-04-01T18:22:55;10.43;;;2.50;;
3698;SDS011;1865;50.918;7.092;2023-04-01T18:25:38;7.30;;;2.97;;
3698;SDS011;1865;50.918;7.092;2023-04-01T18:30:50;6.00;;;3.17;;
3698;SDS011;1865;50.918;7.092;2023-04-01T18:33:48;5.20;;;3.00;;
3698;SDS011;1865;50.918;7.092;2023-04-01T18:36:16;6.20;;;3.20;;
3698;SDS011;1865;50.918;7.092;2023-04-01T18:52:41;6.00;;;2.90;;
3698;SDS011;1865;50.918;7.092;2023-04-01T18:55:28;5.57;;;2.80;;
3698;SDS011;1865;50.918;7.092;2023-04-01T19:09:24;4.87;;;2.90;;
3698;SDS011;1865;50.918;7.092;2023-04-01T19:12:03;5.93;;;3.23;;
3698;SDS011;1865;50.918;7.092;2023-04-01T19:17:54;4.70;;;2.83;;
3698;SDS011;1865;50.918;7.092;2023-04-01T19:20:37;6.27;;;2.93;;
3698;SDS011;1865;50.918;7.092;2023-04-01T19:26:29;6.57;;;3.13;;
3698;SDS011;1865;50.918;7.092;2023-04-01T19:37:22;5.70;;;2.87;;
3698;SDS011;1865;50.918;7.092;2023-04-01T19:54:25;6.37;;;3.43;;
3698;SDS011;1865;50.918;7.092;2023-04-01T20:02:37;7.30;;;4.20;;
3698;SDS011;1865;50.918;7.092;2023-04-01T20:07:58;6.53;;;4.07;;
3698;SDS011;1865;50.918;7.092;2023-04-01T20:10:32;7.03;;;4.20;;
3698;SDS011;1865;50.918;7.092;2023-04-01T20:13:06;6.30;;;3.83;;
3698;SDS011;1865;50.918;7.092;2023-04-01T20:16:04;5.40;;;2.90;;
3698;SDS011;1865;50.918;7.092;2023-04-01T20:18:39;6.27;;;3.20;;
3698;SDS011;1865;50.918;7.092;2023-04-01T20:21:16;5.90;;;3.77;;
3698;SDS011;1865;50.918;7.092;2023-04-01T20:23:59;6.03;;;2.97;;
3698;SDS011;1865;50.918;7.092;2023-04-01T20:26:49;5.83;;;3.40;;
3698;SDS011;1865;50.918;7.092;2023-04-01T20:31:57;5.80;;;3.83;;
3698;SDS011;1865;50.918;7.092;2023-04-01T20:37:48;6.53;;;3.80;;
3698;SDS011;1865;50.918;7.092;2023-04-01T20:40:47;8.73;;;4.10;;
3698;SDS011;1865;50.918;7.092;2023-04-01T20:46:39;5.90;;;3.67;;
3698;SDS011;1865;50.918;7.092;2023-04-01T20:57:21;6.13;;;3.90;;
3698;SDS011;1865;50.918;7.092;2023-04-01T21:00:22;7.30;;;4.33;;
3698;SDS011;1865;50.918;7.092;2023-04-01T21:25:26;7.80;;;5.30;;
3698;SDS011;1865;50.918;7.092;2023-04-01T21:28:15;8.30;;;4.90;;
3698;SDS011;1865;50.918;7.092;2023-04-01T21:47:14;6.73;;;4.17;;
3698;SDS011;1865;50.918;7.092;2023-04-01T21:52:53;6.60;;;3.47;;
3698;SDS011;1865;50.918;7.092;2023-04-01T21:58:37;5.97;;;3.70;;
3698;SDS011;1865;50.918;7.092;2023-04-01T22:06:57;7.40;;;3.63;;
3698;SDS011;1865;50.918;7.092;2023-04-01T22:09:50;7.50;;;4.20;;
3698;SDS011;1865;50.918;7.092;2023-04-01T22:15:05;7.30;;;4.00;;
3698;SDS011;1865;50.918;7.092;2023-04-01T22:17:48;12.40;;;8.50;;
3698;SDS011;1865;50.918;7.092;2023-04-01T22:20:31;14.17;;;9.73;;
3698;SDS011;1865;50.918;7.092;2023-04-01T22:23:16;21.37;;;14.73;;
3698;SDS011;1865;50.918;7.092;2023-04-01T22:31:38;9.50;;;4.10;;
3698;SDS011;1865;50.918;7.092;2023-04-01T22:34:19;12.43;;;7.20;;
3698;SDS011;1865;50.918;7.092;2023-04-01T22:37:13;7.80;;;4.60;;
3698;SDS011;1865;50.918;7.092;2023-04-01T22:45:51;8.10;;;4.67;;
3698;SDS011;1865;50.918;7.092;2023-04-01T22:48:41;8.20;;;5.07;;
3698;SDS011;1865;50.918;7.092;2023-04-01T22:51:18;10.37;;;4.80;;
3698;SDS011;1865;50.918;7.092;2023-04-01T22:56:49;8.47;;;5.17;;
3698;SDS011;1865;50.918;7.092;2023-04-01T23:02:16;8.60;;;4.60;;
3698;SDS011;1865;50.918;7.092;2023-04-01T23:04:48;7.47;;;4.77;;
3698;SDS011;1865;50.918;7.092;2023-04-01T23:07:41;11.00;;;4.63;;
3698;SDS011;1865;50.918;7.092;2023-04-01T23:10:16;8.63;;;4.60;;
3698;SDS011;1865;50.918;7.092;2023-04-01T23:12:58;8.30;;;4.60;;
3698;SDS011;1865;50.918;7.092;2023-04-01T23:20:52;9.30;;;5.30;;
3698;SDS011;1865;50.918;7.092;2023-04-01T23:28:49;7.70;;;4.70;;
3698;SDS011;1865;50.918;7.092;2023-04-01T23:31:37;7.83;;;4.90;;
3698;SDS011;1865;50.918;7.092;2023-04-01T23:36:46;7.37;;;4.60;;
3698;SDS011;1865;50.918;7.092;2023-04-01T23:39:22;10.17;;;5.80;;
3698;SDS011;1865;50.918;7.092;2023-04-01T23:41:52;8.00;;;4.60;;
3698;SDS011;1865;50.918;7.092;2023-04-01T23:44:21;7.30;;;4.53;;
3698;SDS011;1865;50.918;7.092;2023-04-01T23:46:50;9.50;;;6.33;;
3698;SDS011;1865;50.918;7.092;2023-04-01T23:49:18;10.33;;;5.13;;
3698;SDS011;1865;50.918;7.092;2023-04-01T23:51:50;13.23;;;5.87;;
3698;SDS011;1865;50.918;7.092;2023-04-01T23:54:32;14.80;;;6.07;;
3698;SDS011;1865;50.918;7.092;2023-04-01T23:56:59;9.83;;;5.57;;
3698;SDS011;1865;50.918;7.092;2023-04-01T23:59:35;9.20;;;4.90;;
